sensor_id;sensor_type;location;lat;lon;timestamp;P1;durP1;ratioP1;P2;durP2;ratioP2
17261;SDS011;9873;52.236;21.002;2023-07-20T00:03:43;4.63;;;2.15;;
17261;SDS011;9873;52.236;21.002;2023-07-20T00:13:47;3.53;;;2.50;;
17261;SDS011;9873;52.236;21.002;2023-07-20T00:23:52;2.95;;;2.08;;
17261;SDS011;9873;52.236;21.002;2023-07-20T00:33:55;3.17;;;2.08;;
17261;SDS011;9873;52.236;21.002;2023-07-20T00:43:57;2.70;;;1.88;;
17261;SDS011;9873;52.236;21.002;2023-07-20T00:54:02;4.47;;;1.88;;
17261;SDS011;9873;52.236;21.002;2023-07-20T01:04:04;3.13;;;1.92;;
17261;SDS011;9873;52.236;21.002;2023-07-20T01:14:07;3.88;;;2.00;;
17261;SDS011;9873;52.236;21.002;2023-07-20T01:34:36;2.63;;;1.95;;
17261;SDS011;9873;52.236;21.002;2023-07-20T01:44:42;3.95;;;2.53;;
17261;SDS011;9873;52.236;21.002;2023-07-20T01:54:44;5.38;;;2.60;;
17261;SDS011;9873;52.236;21.002;2023-07-20T02:04:52;5.00;;;2.40;;
17261;SDS011;9873;52.236;21.002;2023-07-20T02:14:56;6.40;;;2.40;;
17261;SDS011;9873;52.236;21.002;2023-07-20T02:25:02;2.65;;;1.92;;
17261;SDS011;9873;52.236;21.002;2023-07-20T02:35:11;2.95;;;2.22;;
17261;SDS011;9873;52.236;21.002;2023-07-20T02:45:15;5.03;;;2.47;;
17261;SDS011;9873;52.236;21.002;2023-07-20T02:55:18;5.43;;;2.92;;
17261;SDS011;9873;52.236;21.002;2023-07-20T03:05:27;3.97;;;2.50;;
17261;SDS011;9873;52.236;21.002;2023-07-20T03:15:30;3.45;;;2.83;;
17261;SDS011;9873;52.236;21.002;2023-07-20T03:25:33;3.58;;;2.40;;
17261;SDS011;9873;52.236;21.002;2023-07-20T03:35:36;4.85;;;2.30;;
17261;SDS011;9873;52.236;21.002;2023-07-20T03:45:40;2.92;;;2.25;;
17261;SDS011;9873;52.236;21.002;2023-07-20T03:55:44;5.20;;;2.50;;
17261;SDS011;9873;52.236;21.002;2023-07-20T04:05:49;4.28;;;3.50;;
17261;SDS011;9873;52.236;21.002;2023-07-20T04:15:53;4.50;;;3.15;;
17261;SDS011;9873;52.236;21.002;2023-07-20T04:25:57;7.07;;;3.40;;
17261;SDS011;9873;52.236;21.002;2023-07-20T04:35:59;6.63;;;4.20;;
17261;SDS011;9873;52.236;21.002;2023-07-20T04:46:09;6.03;;;4.35;;
17261;SDS011;9873;52.236;21.002;2023-07-20T04:56:12;5.03;;;4.07;;
17261;SDS011;9873;52.236;21.002;2023-07-20T05:06:19;6.85;;;4.05;;
17261;SDS011;9873;52.236;21.002;2023-07-20T05:16:24;4.90;;;4.07;;
17261;SDS011;9873;52.236;21.002;2023-07-20T05:26:33;6.80;;;4.47;;
17261;SDS011;9873;52.236;21.002;2023-07-20T05:36:36;6.30;;;4.25;;
17261;SDS011;9873;52.236;21.002;2023-07-20T05:46:39;6.15;;;4.63;;
17261;SDS011;9873;52.236;21.002;2023-07-20T05:56:56;5.70;;;4.63;;
17261;SDS011;9873;52.236;21.002;2023-07-20T06:06:58;7.18;;;5.43;;
17261;SDS011;9873;52.236;21.002;2023-07-20T06:17:05;7.13;;;5.90;;
17261;SDS011;9873;52.236;21.002;2023-07-20T06:27:12;8.85;;;5.70;;
17261;SDS011;9873;52.236;21.002;2023-07-20T06:37:20;8.35;;;5.45;;
17261;SDS011;9873;52.236;21.002;2023-07-20T06:47:23;7.13;;;5.47;;
17261;SDS011;9873;52.236;21.002;2023-07-20T06:57:30;5.80;;;4.97;;
17261;SDS011;9873;52.236;21.002;2023-07-20T07:07:32;7.15;;;5.65;;
17261;SDS011;9873;52.236;21.002;2023-07-20T07:17:41;7.80;;;4.82;;
17261;SDS011;9873;52.236;21.002;2023-07-20T07:27:48;7.88;;;5.32;;
17261;SDS011;9873;52.236;21.002;2023-07-20T07:37:51;5.35;;;4.55;;
17261;SDS011;9873;52.236;21.002;2023-07-20T07:48:13;8.13;;;5.40;;
17261;SDS011;9873;52.236;21.002;2023-07-20T07:58:18;6.68;;;4.78;;
17261;SDS011;9873;52.236;21.002;2023-07-20T08:08:20;6.78;;;5.22;;
17261;SDS011;9873;52.236;21.002;2023-07-20T08:18:25;10.02;;;5.28;;
17261;SDS011;9873;52.236;21.002;2023-07-20T08:28:30;9.10;;;6.55;;
17261;SDS011;9873;52.236;21.002;2023-07-20T08:38:33;6.10;;;4.80;;
17261;SDS011;9873;52.236;21.002;2023-07-20T08:48:37;6.35;;;4.50;;
17261;SDS011;9873;52.236;21.002;2023-07-20T08:58:43;6.22;;;4.15;;
17261;SDS011;9873;52.236;21.002;2023-07-20T09:08:46;5.22;;;3.70;;
17261;SDS011;9873;52.236;21.002;2023-07-20T09:18:48;4.82;;;3.65;;
17261;SDS011;9873;52.236;21.002;2023-07-20T09:28:53;4.25;;;2.90;;
17261;SDS011;9873;52.236;21.002;2023-07-20T09:38:58;8.75;;;3.97;;
17261;SDS011;9873;52.236;21.002;2023-07-20T09:49:03;5.68;;;4.35;;
17261;SDS011;9873;52.236;21.002;2023-07-20T09:59:15;7.97;;;3.90;;
17261;SDS011;9873;52.236;21.002;2023-07-20T10:09:23;5.70;;;3.20;;
17261;SDS011;9873;52.236;21.002;2023-07-20T10:20:08;6.28;;;3.53;;
17261;SDS011;9873;52.236;21.002;2023-07-20T10:29:53;3.88;;;3.00;;
17261;SDS011;9873;52.236;21.002;2023-07-20T10:39:57;4.30;;;2.95;;
17261;SDS011;9873;52.236;21.002;2023-07-20T10:49:59;3.60;;;3.30;;
17261;SDS011;9873;52.236;21.002;2023-07-20T11:00:09;3.55;;;2.72;;
17261;SDS011;9873;52.236;21.002;2023-07-20T11:10:16;4.22;;;2.85;;
17261;SDS011;9873;52.236;21.002;2023-07-20T11:20:20;3.40;;;2.97;;
17261;SDS011;9873;52.236;21.002;2023-07-20T11:30:23;4.10;;;2.85;;
17261;SDS011;9873;52.236;21.002;2023-07-20T11:40:26;3.30;;;2.30;;
17261;SDS011;9873;52.236;21.002;2023-07-20T11:50:28;3.97;;;2.50;;
17261;SDS011;9873;52.236;21.002;2023-07-20T12:00:36;2.45;;;2.13;;
17261;SDS011;9873;52.236;21.002;2023-07-20T12:10:41;3.30;;;2.15;;
17261;SDS011;9873;52.236;21.002;2023-07-20T12:20:48;4.68;;;2.40;;
17261;SDS011;9873;52.236;21.002;2023-07-20T12:31:05;2.25;;;1.98;;
17261;SDS011;9873;52.236;21.002;2023-07-20T12:41:09;2.65;;;2.17;;
17261;SDS011;9873;52.236;21.002;2023-07-20T12:51:19;4.47;;;2.08;;
17261;SDS011;9873;52.236;21.002;2023-07-20T13:01:21;3.30;;;1.75;;
17261;SDS011;9873;52.236;21.002;2023-07-20T13:11:24;2.65;;;2.20;;
17261;SDS011;9873;52.236;21.002;2023-07-20T13:21:27;1.88;;;1.77;;
17261;SDS011;9873;52.236;21.002;2023-07-20T13:31:33;3.70;;;2.75;;
17261;SDS011;9873;52.236;21.002;2023-07-20T13:41:44;3.05;;;2.20;;
17261;SDS011;9873;52.236;21.002;2023-07-20T13:51:49;6.78;;;2.65;;
17261;SDS011;9873;52.236;21.002;2023-07-20T14:01:57;3.05;;;2.30;;
17261;SDS011;9873;52.236;21.002;2023-07-20T14:12:08;3.78;;;2.50;;
17261;SDS011;9873;52.236;21.002;2023-07-20T14:22:13;2.75;;;2.30;;
17261;SDS011;9873;52.236;21.002;2023-07-20T14:32:17;2.67;;;2.22;;
17261;SDS011;9873;52.236;21.002;2023-07-20T14:42:22;2.05;;;1.85;;
17261;SDS011;9873;52.236;21.002;2023-07-20T14:52:24;1.90;;;1.40;;
17261;SDS011;9873;52.236;21.002;2023-07-20T15:02:30;3.22;;;1.48;;
17261;SDS011;9873;52.236;21.002;2023-07-20T15:12:33;1.60;;;1.50;;
17261;SDS011;9873;52.236;21.002;2023-07-20T15:22:37;2.45;;;1.17;;
17261;SDS011;9873;52.236;21.002;2023-07-20T15:32:42;1.27;;;1.17;;
17261;SDS011;9873;52.236;21.002;2023-07-20T15:42:48;2.33;;;1.52;;
17261;SDS011;9873;52.236;21.002;2023-07-20T15:52:53;2.90;;;1.98;;
17261;SDS011;9873;52.236;21.002;2023-07-20T16:02:58;3.40;;;2.05;;
17261;SDS011;9873;52.236;21.002;2023-07-20T16:13:01;2.30;;;1.92;;
17261;SDS011;9873;52.236;21.002;2023-07-20T16:23:04;4.00;;;1.05;;
17261;SDS011;9873;52.236;21.002;2023-07-20T16:33:08;2.92;;;1.75;;
17261;SDS011;9873;52.236;21.002;2023-07-20T16:43:10;4.53;;;2.03;;
17261;SDS011;9873;52.236;21.002;2023-07-20T16:53:15;4.72;;;2.38;;
17261;SDS011;9873;52.236;21.002;2023-07-20T17:03:17;4.18;;;2.80;;
17261;SDS011;9873;52.236;21.002;2023-07-20T17:13:22;5.35;;;2.67;;
17261;SDS011;9873;52.236;21.002;2023-07-20T17:23:25;4.20;;;2.20;;
17261;SDS011;9873;52.236;21.002;2023-07-20T17:33:34;3.17;;;2.30;;
17261;SDS011;9873;52.236;21.002;2023-07-20T17:43:39;3.97;;;1.90;;
17261;SDS011;9873;52.236;21.002;2023-07-20T17:53:41;3.88;;;2.67;;
17261;SDS011;9873;52.236;21.002;2023-07-20T18:03:44;2.20;;;1.88;;
17261;SDS011;9873;52.236;21.002;2023-07-20T18:13:46;2.83;;;1.88;;
17261;SDS011;9873;52.236;21.002;2023-07-20T18:23:49;2.50;;;2.28;;
17261;SDS011;9873;52.236;21.002;2023-07-20T18:33:55;2.92;;;2.35;;
17261;SDS011;9873;52.236;21.002;2023-07-20T18:44:00;4.72;;;1.73;;
17261;SDS011;9873;52.236;21.002;2023-07-20T18:54:02;4.70;;;2.05;;
17261;SDS011;9873;52.236;21.002;2023-07-20T19:04:04;3.15;;;2.10;;
17261;SDS011;9873;52.236;21.002;2023-07-20T19:14:09;3.28;;;2.10;;
17261;SDS011;9873;52.236;21.002;2023-07-20T19:24:16;2.67;;;2.30;;
17261;SDS011;9873;52.236;21.002;2023-07-20T19:34:21;2.85;;;2.10;;
17261;SDS011;9873;52.236;21.002;2023-07-20T19:44:26;2.95;;;2.65;;
17261;SDS011;9873;52.236;21.002;2023-07-20T19:54:28;4.10;;;2.78;;
17261;SDS011;9873;52.236;21.002;2023-07-20T20:04:31;3.72;;;2.60;;
17261;SDS011;9873;52.236;21.002;2023-07-20T20:14:39;2.70;;;2.50;;
17261;SDS011;9873;52.236;21.002;2023-07-20T20:24:43;2.92;;;2.65;;
17261;SDS011;9873;52.236;21.002;2023-07-20T20:34:46;4.78;;;2.95;;
17261;SDS011;9873;52.236;21.002;2023-07-20T20:44:53;4.82;;;3.47;;
17261;SDS011;9873;52.236;21.002;2023-07-20T20:54:58;7.75;;;3.55;;
17261;SDS011;9873;52.236;21.002;2023-07-20T21:05:00;8.98;;;2.90;;
17261;SDS011;9873;52.236;21.002;2023-07-20T21:15:02;6.22;;;2.70;;
17261;SDS011;9873;52.236;21.002;2023-07-20T21:25:07;4.05;;;2.38;;
17261;SDS011;9873;52.236;21.002;2023-07-20T21:35:12;2.67;;;2.15;;
17261;SDS011;9873;52.236;21.002;2023-07-20T21:45:17;3.65;;;2.72;;
17261;SDS011;9873;52.236;21.002;2023-07-20T21:55:21;2.65;;;2.30;;
17261;SDS011;9873;52.236;21.002;2023-07-20T22:05:25;4.50;;;2.90;;
17261;SDS011;9873;52.236;21.002;2023-07-20T22:15:30;2.50;;;2.30;;
17261;SDS011;9873;52.236;21.002;2023-07-20T22:25:33;2.70;;;2.50;;
17261;SDS011;9873;52.236;21.002;2023-07-20T22:35:37;4.85;;;2.83;;
17261;SDS011;9873;52.236;21.002;2023-07-20T22:45:44;3.97;;;2.45;;
17261;SDS011;9873;52.236;21.002;2023-07-20T22:55:49;4.40;;;2.47;;
17261;SDS011;9873;52.236;21.002;2023-07-20T23:05:53;4.38;;;2.75;;
17261;SDS011;9873;52.236;21.002;2023-07-20T23:15:58;5.63;;;2.67;;
17261;SDS011;9873;52.236;21.002;2023-07-20T23:26:05;3.80;;;2.50;;
17261;SDS011;9873;52.236;21.002;2023-07-20T23:36:13;2.80;;;2.60;;
17261;SDS011;9873;52.236;21.002;2023-07-20T23:46:15;3.45;;;2.97;;
17261;SDS011;9873;52.236;21.002;2023-07-20T23:56:25;4.32;;;2.50;;
